Time;durP1;ratioP1;P1;durP2;ratioP2;P2;SDS_P1;SDS_P2;PMS_P1;PMS_P2;Temp;Humidity;BMP_temperature;BMP_pressure;BME280_temperature;BME280_humidity;BME280_pressure;Samples;Min_cycle;Max_cycle;Signal;HPM_P1;HPM_P2
2023/06/02 00:00:52;;;;;;;8.95;3.40;;;;;;;;;;5026880;28;20021;-61
2023/06/02 00:03:18;;;;;;;8.23;3.38;;;;;;;;;;5025484;28;20049;-61
2023/06/02 00:05:44;;;;;;;9.98;3.55;;;;;;;;;;5028168;28;20021;-61
2023/06/02 00:08:09;;;;;;;10.30;3.42;;;;;;;;;;5029203;28;20121;-60
2023/06/02 00:10:34;;;;;;;8.80;3.17;;;;;;;;;;5030159;28;20111;-61
2023/06/02 00:13:00;;;;;;;7.47;3.30;;;;;;;;;;5022369;28;20033;-61
2023/06/02 00:15:25;;;;;;;7.47;3.03;;;;;;;;;;5024404;28;20068;-61
2023/06/02 00:17:50;;;;;;;7.32;2.92;;;;;;;;;;5022590;28;20026;-61
2023/06/02 00:20:17;;;;;;;9.18;3.30;;;;;;;;;;5018262;28;20448;-61
2023/06/02 00:22:43;;;;;;;9.15;3.20;;;;;;;;;;5023087;28;20458;-60
2023/06/02 00:25:08;;;;;;;8.35;3.08;;;;;;;;;;5030409;28;20485;-61
2023/06/02 00:27:33;;;;;;;6.85;3.15;;;;;;;;;;5030982;28;20049;-61
2023/06/02 00:29:58;;;;;;;9.67;3.80;;;;;;;;;;5020431;28;20052;-61
2023/06/02 00:32:23;;;;;;;9.70;3.58;;;;;;;;;;5027735;28;20030;-61
2023/06/02 00:34:49;;;;;;;9.20;3.20;;;;;;;;;;5030617;28;20029;-60
2023/06/02 00:37:14;;;;;;;7.90;3.20;;;;;;;;;;5030361;28;20049;-60
2023/06/02 00:39:39;;;;;;;8.50;3.50;;;;;;;;;;5028550;28;20037;-62
2023/06/02 00:42:04;;;;;;;9.13;3.95;;;;;;;;;;5029316;28;20083;-61
2023/06/02 00:44:30;;;;;;;7.38;3.40;;;;;;;;;;5025559;28;20029;-61
2023/06/02 00:46:56;;;;;;;7.53;3.30;;;;;;;;;;5023519;28;20029;-62
2023/06/02 00:49:21;;;;;;;9.80;3.65;;;;;;;;;;5020360;28;20025;-61
2023/06/02 00:51:47;;;;;;;8.53;3.57;;;;;;;;;;5011865;28;20022;-61
2023/06/02 00:54:13;;;;;;;9.32;3.03;;;;;;;;;;5019923;28;20108;-61
2023/06/02 00:56:39;;;;;;;9.93;3.13;;;;;;;;;;5027539;28;20520;-61
2023/06/02 00:59:05;;;;;;;12.52;3.40;;;;;;;;;;5017343;28;20022;-61
2023/06/02 01:01:31;;;;;;;8.35;3.40;;;;;;;;;;5020883;28;20033;-61
2023/06/02 01:03:57;;;;;;;7.72;3.20;;;;;;;;;;5025393;28;20477;-60
2023/06/02 01:06:27;;;;;;;10.05;3.10;;;;;;;;;;5025413;28;20017;-59
2023/06/02 01:08:52;;;;;;;10.85;3.45;;;;;;;;;;5023013;28;20357;-60
2023/06/02 01:11:17;;;;;;;12.10;3.53;;;;;;;;;;5028126;28;20016;-61
2023/06/02 01:13:42;;;;;;;9.50;3.20;;;;;;;;;;5021813;28;20535;-61
2023/06/02 01:16:11;;;;;;;8.70;3.60;;;;;;;;;;5021595;28;20036;-61
2023/06/02 01:18:36;;;;;;;9.15;3.40;;;;;;;;;;5025531;28;20033;-61
2023/06/02 01:21:03;;;;;;;11.87;3.57;;;;;;;;;;5026936;28;20021;-61
2023/06/02 01:23:33;;;;;;;7.75;3.22;;;;;;;;;;5026948;28;20080;-61
2023/06/02 01:25:59;;;;;;;9.98;3.00;;;;;;;;;;5027819;28;20021;-61
2023/06/02 01:28:26;;;;;;;8.25;3.10;;;;;;;;;;5022154;28;20036;-60
2023/06/02 01:30:53;;;;;;;9.95;3.53;;;;;;;;;;5022276;28;20529;-61
2023/06/02 01:33:21;;;;;;;9.60;3.10;;;;;;;;;;5021384;28;20025;-61
2023/06/02 01:35:47;;;;;;;6.50;3.13;;;;;;;;;;5024508;28;20030;-61
2023/06/02 01:38:13;;;;;;;10.02;3.30;;;;;;;;;;5024240;28;20150;-61
2023/06/02 01:40:38;;;;;;;7.70;2.90;;;;;;;;;;5027480;28;20147;-61
2023/06/02 01:43:04;;;;;;;8.73;3.35;;;;;;;;;;5025794;28;20017;-60
2023/06/02 01:45:31;;;;;;;8.05;3.38;;;;;;;;;;5023939;28;20492;-60
2023/06/02 01:47:56;;;;;;;;;;;;;;;;;;5024544;28;20029;-61
2023/06/02 01:50:21;;;;;;;8.95;3.40;;;;;;;;;;5023549;28;19905;-61
2023/06/02 01:52:46;;;;;;;7.32;3.13;;;;;;;;;;5027019;28;20455;-61
2023/06/02 01:55:11;;;;;;;9.25;3.38;;;;;;;;;;5025254;28;20036;-61
2023/06/02 01:57:36;;;;;;;8.25;3.10;;;;;;;;;;5030633;28;20021;-60
2023/06/02 02:00:05;;;;;;;8.63;3.33;;;;;;;;;;5013330;28;20482;-61
2023/06/02 02:02:30;;;;;;;11.25;3.47;;;;;;;;;;5030163;28;20035;-61
2023/06/02 02:04:55;;;;;;;10.18;3.60;;;;;;;;;;5031974;28;20089;-61
2023/06/02 02:07:20;;;;;;;10.00;3.08;;;;;;;;;;5027854;28;20017;-61
2023/06/02 02:09:46;;;;;;;11.27;3.33;;;;;;;;;;5025797;28;20028;-61
2023/06/02 02:12:11;;;;;;;21.75;3.95;;;;;;;;;;5027795;28;20029;-61
2023/06/02 02:14:36;;;;;;;8.82;3.08;;;;;;;;;;5024989;28;20032;-60
2023/06/02 02:17:01;;;;;;;9.70;3.25;;;;;;;;;;5024853;28;20056;-60
2023/06/02 02:19:31;;;;;;;7.80;3.80;;;;;;;;;;5019667;28;21858;-60
2023/06/02 02:21:56;;;;;;;10.45;3.67;;;;;;;;;;5025317;28;21015;-60
2023/06/02 02:24:21;;;;;;;8.77;3.23;;;;;;;;;;5026549;28;20057;-61
2023/06/02 02:26:46;;;;;;;8.43;3.33;;;;;;;;;;5031777;28;20035;-61
2023/06/02 02:29:11;;;;;;;10.23;3.50;;;;;;;;;;5025617;28;20020;-60
2023/06/02 02:31:36;;;;;;;11.82;4.00;;;;;;;;;;5023879;28;20440;-60
2023/06/02 02:34:02;;;;;;;9.20;3.17;;;;;;;;;;5025731;28;20039;-61
2023/06/02 02:36:27;;;;;;;10.80;3.80;;;;;;;;;;5030834;28;20028;-60
2023/06/02 02:38:52;;;;;;;11.63;3.90;;;;;;;;;;5025944;28;20025;-61
2023/06/02 02:41:17;;;;;;;9.00;3.57;;;;;;;;;;5025142;28;20022;-60
2023/06/02 02:43:42;;;;;;;10.98;3.17;;;;;;;;;;5019923;28;20148;-61
2023/06/02 02:46:07;;;;;;;10.27;3.83;;;;;;;;;;5031905;28;20057;-61
2023/06/02 02:48:33;;;;;;;10.30;3.80;;;;;;;;;;5028410;28;20034;-61
2023/06/02 02:50:58;;;;;;;11.35;3.20;;;;;;;;;;5028385;28;20026;-60
2023/06/02 02:53:24;;;;;;;12.40;3.58;;;;;;;;;;5022248;28;20033;-61
2023/06/02 02:55:51;;;;;;;12.57;3.53;;;;;;;;;;5028212;28;20116;-61
2023/06/02 02:58:18;;;;;;;10.07;3.58;;;;;;;;;;5030262;28;20025;-61
2023/06/02 03:00:43;;;;;;;10.10;3.08;;;;;;;;;;5027231;28;20136;-61
2023/06/02 03:03:09;;;;;;;10.57;3.53;;;;;;;;;;5026284;28;20113;-61
2023/06/02 03:05:34;;;;;;;10.32;3.40;;;;;;;;;;5023482;28;20384;-61
2023/06/02 03:08:02;;;;;;;8.10;3.40;;;;;;;;;;5033454;28;20385;-61
2023/06/02 03:10:27;;;;;;;10.70;3.35;;;;;;;;;;5024610;28;20493;-61
2023/06/02 03:12:52;;;;;;;10.15;3.42;;;;;;;;;;5025092;28;20103;-61
2023/06/02 03:15:17;;;;;;;9.55;3.30;;;;;;;;;;5031342;28;20017;-60
2023/06/02 03:17:45;;;;;;;9.20;3.28;;;;;;;;;;5042848;28;20044;-61
2023/06/02 03:20:10;;;;;;;9.43;3.17;;;;;;;;;;5034166;28;20064;-60
2023/06/02 03:22:36;;;;;;;14.13;3.55;;;;;;;;;;5029421;28;20049;-60
2023/06/02 03:25:02;;;;;;;10.93;3.13;;;;;;;;;;5024527;28;20160;-60
2023/06/02 03:27:27;;;;;;;8.73;3.30;;;;;;;;;;5021708;28;20632;-61
2023/06/02 03:29:52;;;;;;;12.40;3.30;;;;;;;;;;5019793;28;20021;-60
2023/06/02 03:32:17;;;;;;;9.30;3.40;;;;;;;;;;5028939;28;20448;-60
2023/06/02 03:34:44;;;;;;;14.20;3.45;;;;;;;;;;5023940;28;20022;-60
2023/06/02 03:37:11;;;;;;;12.13;3.13;;;;;;;;;;5025510;28;20056;-61
2023/06/02 03:39:36;;;;;;;9.25;3.45;;;;;;;;;;5020593;28;20731;-61
2023/06/02 03:42:02;;;;;;;11.85;3.28;;;;;;;;;;5033727;28;20125;-61
2023/06/02 03:44:27;;;;;;;10.13;3.10;;;;;;;;;;5022083;28;20022;-60
2023/06/02 03:46:52;;;;;;;11.60;3.43;;;;;;;;;;5030841;28;20477;-61
2023/06/02 03:49:17;;;;;;;10.05;3.13;;;;;;;;;;5025792;28;20013;-60
2023/06/02 03:51:43;;;;;;;9.53;3.20;;;;;;;;;;5029773;28;20014;-60
2023/06/02 03:54:08;;;;;;;9.50;3.05;;;;;;;;;;5022371;28;20030;-61
2023/06/02 03:56:33;;;;;;;10.60;3.00;;;;;;;;;;5027604;28;20096;-60
2023/06/02 03:58:59;;;;;;;8.40;3.20;;;;;;;;;;5022223;28;20013;-61
2023/06/02 04:01:24;;;;;;;10.07;2.70;;;;;;;;;;5028248;28;20013;-61
2023/06/02 04:03:50;;;;;;;10.67;3.37;;;;;;;;;;5017951;28;20397;-61
2023/06/02 04:06:15;;;;;;;12.98;3.00;;;;;;;;;;5026757;28;20041;-61
2023/06/02 04:08:40;;;;;;;11.50;3.22;;;;;;;;;;5022731;28;20104;-61
2023/06/02 04:11:05;;;;;;;8.70;2.80;;;;;;;;;;5031350;28;20033;-61
2023/06/02 04:13:31;;;;;;;8.98;2.53;;;;;;;;;;5015441;28;20108;-61
2023/06/02 04:15:56;;;;;;;12.83;3.33;;;;;;;;;;5009416;28;22355;-60
2023/06/02 04:18:21;;;;;;;13.65;3.33;;;;;;;;;;5011605;28;20029;-61
2023/06/02 04:20:47;;;;;;;9.43;3.25;;;;;;;;;;5024216;28;20052;-60
2023/06/02 04:23:12;;;;;;;9.32;3.10;;;;;;;;;;5031217;28;20017;-61
2023/06/02 04:25:37;;;;;;;9.50;2.78;;;;;;;;;;5038487;28;20018;-59
2023/06/02 04:28:02;;;;;;;10.77;3.20;;;;;;;;;;5035105;28;20033;-59
2023/06/02 04:30:27;;;;;;;11.30;2.60;;;;;;;;;;5013784;28;20456;-61
2023/06/02 04:32:52;;;;;;;9.02;3.10;;;;;;;;;;5015945;28;20031;-61
2023/06/02 04:35:18;;;;;;;16.80;3.20;;;;;;;;;;5024163;28;20029;-59
2023/06/02 04:37:46;;;;;;;11.80;3.23;;;;;;;;;;5018672;28;20491;-59
2023/06/02 04:40:11;;;;;;;11.57;3.08;;;;;;;;;;5022932;28;20044;-59
2023/06/02 04:42:38;;;;;;;11.17;2.83;;;;;;;;;;5021822;28;20029;-59
2023/06/02 04:45:05;;;;;;;16.35;2.90;;;;;;;;;;5019345;28;20026;-59
2023/06/02 04:47:30;;;;;;;8.63;3.05;;;;;;;;;;5017192;28;20030;-59
2023/06/02 04:49:55;;;;;;;10.63;3.13;;;;;;;;;;5025653;28;20026;-63
2023/06/02 04:52:20;;;;;;;9.53;2.90;;;;;;;;;;5019288;28;20302;-59
2023/06/02 04:54:46;;;;;;;14.93;2.67;;;;;;;;;;5013056;28;20421;-59
2023/06/02 04:57:11;;;;;;;11.07;2.90;;;;;;;;;;5014925;28;20017;-60
2023/06/02 04:59:36;;;;;;;11.38;2.92;;;;;;;;;;5029564;28;20465;-60
2023/06/02 05:02:01;;;;;;;12.00;2.97;;;;;;;;;;5021148;28;20780;-59
2023/06/02 05:04:26;;;;;;;8.60;2.78;;;;;;;;;;5037499;28;20025;-61
2023/06/02 05:06:52;;;;;;;13.20;3.17;;;;;;;;;;5033096;28;20745;-60
2023/06/02 05:09:17;;;;;;;11.13;3.05;;;;;;;;;;5029100;28;20061;-60
2023/06/02 05:11:43;;;;;;;13.70;3.80;;;;;;;;;;5034433;28;20772;-60
2023/06/02 05:14:08;;;;;;;11.23;3.05;;;;;;;;;;5021376;28;20028;-60
2023/06/02 05:16:33;;;;;;;12.65;3.65;;;;;;;;;;5016406;28;20041;-60
2023/06/02 05:18:58;;;;;;;13.73;3.33;;;;;;;;;;5026120;28;20450;-60
2023/06/02 05:21:23;;;;;;;10.90;3.05;;;;;;;;;;5036752;28;20041;-60
2023/06/02 05:23:48;;;;;;;14.82;3.45;;;;;;;;;;5023253;28;20033;-60
2023/06/02 05:26:14;;;;;;;13.88;3.10;;;;;;;;;;5017503;28;20033;-60
2023/06/02 05:28:40;;;;;;;13.40;3.03;;;;;;;;;;5022403;28;20100;-60
2023/06/02 05:31:05;;;;;;;12.25;3.13;;;;;;;;;;5029261;28;20017;-60
2023/06/02 05:33:30;;;;;;;11.73;3.03;;;;;;;;;;5030576;28;20017;-59
2023/06/02 05:35:56;;;;;;;16.13;3.15;;;;;;;;;;5030206;28;20025;-60
2023/06/02 05:38:21;;;;;;;12.90;3.00;;;;;;;;;;5015820;28;20033;-60
2023/06/02 05:40:46;;;;;;;12.60;2.83;;;;;;;;;;5028145;28;20086;-59
2023/06/02 05:43:11;;;;;;;8.57;2.88;;;;;;;;;;5028749;28;20040;-60
2023/06/02 05:45:36;;;;;;;10.50;2.97;;;;;;;;;;5030855;28;20492;-59
2023/06/02 05:48:01;;;;;;;11.25;2.88;;;;;;;;;;5029281;28;20851;-60
2023/06/02 05:50:27;;;;;;;9.33;2.73;;;;;;;;;;5030466;28;20028;-60
2023/06/02 05:52:52;;;;;;;12.32;3.40;;;;;;;;;;5014476;28;20022;-60
2023/06/02 05:55:17;;;;;;;19.27;3.72;;;;;;;;;;5023451;28;20036;-60
2023/06/02 05:57:42;;;;;;;14.87;3.20;;;;;;;;;;5011120;28;20449;-60
2023/06/02 06:00:08;;;;;;;14.18;3.10;;;;;;;;;;5035739;28;20029;-59
2023/06/02 06:02:33;;;;;;;16.02;2.80;;;;;;;;;;5029867;28;20029;-60
2023/06/02 06:04:58;;;;;;;12.23;2.70;;;;;;;;;;5046341;28;20021;-60
2023/06/02 06:07:23;;;;;;;11.32;3.00;;;;;;;;;;5050827;28;20477;-60
2023/06/02 06:09:48;;;;;;;18.17;3.73;;;;;;;;;;5048151;28;20025;-60
2023/06/02 06:12:14;;;;;;;13.18;3.50;;;;;;;;;;5031269;28;20428;-60
2023/06/02 06:14:39;;;;;;;12.13;3.10;;;;;;;;;;5023224;28;20650;-60
2023/06/02 06:17:04;;;;;;;13.93;3.00;;;;;;;;;;5030112;28;20097;-60
2023/06/02 06:19:29;;;;;;;13.60;3.50;;;;;;;;;;5034167;28;20064;-60
2023/06/02 06:21:54;;;;;;;8.90;3.00;;;;;;;;;;5038950;28;20037;-60
2023/06/02 06:24:19;;;;;;;18.83;3.53;;;;;;;;;;5042275;28;20163;-60
2023/06/02 06:26:44;;;;;;;15.77;3.50;;;;;;;;;;5027914;28;20103;-60
2023/06/02 06:29:10;;;;;;;12.57;3.72;;;;;;;;;;5036732;28;20074;-60
2023/06/02 06:31:35;;;;;;;10.67;3.20;;;;;;;;;;5039523;28;20021;-61
2023/06/02 06:34:00;;;;;;;12.57;3.07;;;;;;;;;;5032109;28;20030;-59
2023/06/02 06:36:25;;;;;;;12.40;3.30;;;;;;;;;;5038357;28;20030;-61
2023/06/02 06:38:50;;;;;;;11.23;3.10;;;;;;;;;;5025903;28;20025;-62
2023/06/02 06:41:17;;;;;;;13.90;3.17;;;;;;;;;;5034742;28;20033;-61
2023/06/02 06:43:42;;;;;;;;;;;;;;;;;;5017719;28;20166;-59
2023/06/02 06:46:07;;;;;;;11.40;3.25;;;;;;;;;;5026933;28;20005;-59
2023/06/02 06:48:32;;;;;;;11.57;3.87;;;;;;;;;;5038719;28;20104;-61
2023/06/02 06:50:57;;;;;;;11.68;3.05;;;;;;;;;;5023050;28;20034;-60
2023/06/02 06:53:22;;;;;;;12.70;3.77;;;;;;;;;;5026714;28;20388;-60
2023/06/02 06:55:48;;;;;;;15.30;3.70;;;;;;;;;;5031979;28;20021;-60
2023/06/02 06:58:13;;;;;;;10.80;3.40;;;;;;;;;;5042035;28;20017;-61
2023/06/02 07:00:38;;;;;;;12.27;3.40;;;;;;;;;;5025778;28;20187;-61
2023/06/02 07:03:03;;;;;;;16.47;3.57;;;;;;;;;;5024168;28;20044;-61
2023/06/02 07:05:28;;;;;;;13.55;3.22;;;;;;;;;;5024333;28;20249;-60
2023/06/02 07:07:54;;;;;;;12.20;3.40;;;;;;;;;;5022015;28;20021;-61
2023/06/02 07:10:19;;;;;;;14.50;3.27;;;;;;;;;;5040536;28;20477;-60
2023/06/02 07:12:44;;;;;;;13.57;3.93;;;;;;;;;;5033406;28;20420;-61
2023/06/02 07:15:09;;;;;;;11.77;3.37;;;;;;;;;;5033576;28;20025;-61
2023/06/02 07:17:35;;;;;;;9.50;3.07;;;;;;;;;;5033653;28;20525;-61
2023/06/02 07:20:00;;;;;;;16.23;3.00;;;;;;;;;;5032558;28;20025;-61
2023/06/02 07:22:25;;;;;;;15.97;3.43;;;;;;;;;;5029397;28;20108;-61
2023/06/02 07:24:51;;;;;;;13.20;2.83;;;;;;;;;;5032998;28;20021;-59
2023/06/02 07:27:16;;;;;;;16.77;3.58;;;;;;;;;;5013533;28;20026;-60
2023/06/02 07:29:41;;;;;;;17.75;3.85;;;;;;;;;;5012948;28;20515;-60
2023/06/02 07:32:08;;;;;;;16.50;3.78;;;;;;;;;;5013827;28;20026;-60
2023/06/02 07:34:33;;;;;;;12.13;3.45;;;;;;;;;;5013467;28;20417;-60
2023/06/02 07:37:00;;;;;;;16.23;3.87;;;;;;;;;;5012933;28;20026;-60
2023/06/02 07:39:25;;;;;;;13.85;3.38;;;;;;;;;;5006758;28;20045;-60
2023/06/02 07:41:51;;;;;;;13.37;3.50;;;;;;;;;;5028958;28;20056;-60
2023/06/02 07:44:16;;;;;;;11.33;3.60;;;;;;;;;;5023651;28;20105;-60
2023/06/02 07:46:42;;;;;;;18.35;4.22;;;;;;;;;;5025032;28;20457;-60
2023/06/02 07:49:07;;;;;;;15.13;3.40;;;;;;;;;;5030787;28;20424;-60
2023/06/02 07:51:33;;;;;;;14.82;4.13;;;;;;;;;;5032463;28;20030;-60
2023/06/02 07:53:58;;;;;;;12.32;3.13;;;;;;;;;;5032823;28;20473;-60
2023/06/02 07:56:23;;;;;;;13.48;3.58;;;;;;;;;;5033147;28;20076;-60
2023/06/02 07:58:48;;;;;;;12.23;3.28;;;;;;;;;;5032136;28;20025;-60
2023/06/02 08:01:14;;;;;;;15.90;3.33;;;;;;;;;;5028875;28;20040;-60
2023/06/02 08:03:40;;;;;;;14.38;3.08;;;;;;;;;;5032417;28;20017;-60
2023/06/02 08:06:05;;;;;;;13.25;3.10;;;;;;;;;;5031989;28;20073;-60
2023/06/02 08:08:30;;;;;;;14.43;3.60;;;;;;;;;;5032086;28;20021;-60
2023/06/02 08:10:57;;;;;;;14.90;3.50;;;;;;;;;;5027800;28;20476;-60
2023/06/02 08:13:22;;;;;;;12.02;3.75;;;;;;;;;;5031778;28;20044;-60
2023/06/02 08:15:47;;;;;;;14.20;3.10;;;;;;;;;;5031181;28;20026;-60
2023/06/02 08:18:14;;;;;;;13.05;3.25;;;;;;;;;;5027607;28;20384;-60
2023/06/02 08:20:40;;;;;;;16.85;3.83;;;;;;;;;;5031272;28;20385;-60
2023/06/02 08:23:07;;;;;;;14.13;3.88;;;;;;;;;;5032182;28;20540;-60
2023/06/02 08:25:32;;;;;;;11.23;3.20;;;;;;;;;;5031147;28;20400;-60
2023/06/02 08:27:57;;;;;;;12.52;3.53;;;;;;;;;;5029682;28;20017;-60
2023/06/02 08:30:22;;;;;;;12.27;3.05;;;;;;;;;;5031741;28;20053;-59
2023/06/02 08:32:48;;;;;;;10.27;3.08;;;;;;;;;;5032155;28;20029;-60
2023/06/02 08:35:13;;;;;;;16.95;3.10;;;;;;;;;;5031586;28;20029;-60
2023/06/02 08:37:38;;;;;;;14.55;3.08;;;;;;;;;;5032128;28;20013;-63
2023/06/02 08:40:05;;;;;;;14.75;3.20;;;;;;;;;;5029093;28;20031;-59
2023/06/02 08:42:31;;;;;;;15.30;3.40;;;;;;;;;;5030221;28;20468;-60
2023/06/02 08:44:56;;;;;;;16.15;3.20;;;;;;;;;;5031885;28;20017;-60
2023/06/02 08:47:23;;;;;;;12.65;2.80;;;;;;;;;;5032053;28;20116;-59
2023/06/02 08:49:48;;;;;;;18.48;3.45;;;;;;;;;;5031043;28;20035;-61
2023/06/02 08:52:16;;;;;;;12.50;3.10;;;;;;;;;;5031161;28;20108;-60
2023/06/02 08:54:41;;;;;;;15.00;3.47;;;;;;;;;;5026747;28;20045;-60
2023/06/02 08:57:09;;;;;;;12.00;3.38;;;;;;;;;;5031282;28;20017;-60
2023/06/02 08:59:34;;;;;;;14.32;3.10;;;;;;;;;;5027460;28;20030;-60
2023/06/02 09:02:00;;;;;;;9.63;2.63;;;;;;;;;;5011922;28;20040;-58
2023/06/02 09:04:26;;;;;;;11.98;3.28;;;;;;;;;;5010508;28;20030;-61
2023/06/02 09:07:10;;;;;;;14.27;3.30;;;;;;;;;;5012727;28;20038;-61
2023/06/02 09:09:42;;;;;;;13.30;3.10;;;;;;;;;;5024890;28;20481;-61
2023/06/02 09:12:08;;;;;;;9.60;2.55;;;;;;;;;;5026452;28;20021;-60
2023/06/02 09:14:33;;;;;;;11.73;2.75;;;;;;;;;;5024456;28;20071;-61
2023/06/02 09:16:58;;;;;;;14.70;3.27;;;;;;;;;;5026795;28;20100;-61
2023/06/02 09:19:23;;;;;;;11.93;2.90;;;;;;;;;;5027880;28;20021;-60
2023/06/02 09:21:49;;;;;;;11.10;3.10;;;;;;;;;;5026906;28;20064;-61
2023/06/02 09:24:28;;;;;;;10.07;2.92;;;;;;;;;;5030182;28;20393;-61
2023/06/02 09:26:54;;;;;;;13.82;2.70;;;;;;;;;;5029781;28;20426;-61
2023/06/02 09:29:19;;;;;;;8.75;2.22;;;;;;;;;;5030487;28;20187;-61
2023/06/02 09:31:47;;;;;;;10.87;2.47;;;;;;;;;;5030654;28;20033;-61
2023/06/02 09:34:13;;;;;;;12.55;2.45;;;;;;;;;;5026742;28;20029;-61
2023/06/02 09:36:38;;;;;;;15.18;3.05;;;;;;;;;;5020891;28;20477;-61
2023/06/02 09:39:04;;;;;;;12.75;2.53;;;;;;;;;;5026857;28;20090;-60
2023/06/02 09:41:30;;;;;;;11.15;2.85;;;;;;;;;;5022966;28;20025;-61
2023/06/02 09:43:56;;;;;;;15.65;2.97;;;;;;;;;;5030772;28;20469;-61
2023/06/02 09:46:21;;;;;;;;;;;;;;;;;;5027450;28;20021;-59
2023/06/02 09:48:56;;;;;;;12.55;2.50;;;;;;;;;;5017810;28;19913;-61
2023/06/02 09:51:22;;;;;;;8.65;2.42;;;;;;;;;;5030497;28;20037;-60
2023/06/02 09:53:48;;;;;;;12.55;2.55;;;;;;;;;;5029155;28;20110;-59
2023/06/02 09:56:14;;;;;;;11.63;2.63;;;;;;;;;;5027673;28;20413;-59
2023/06/02 09:58:39;;;;;;;11.68;2.30;;;;;;;;;;5016090;28;20022;-59
2023/06/02 10:01:05;;;;;;;10.75;2.80;;;;;;;;;;5030354;28;20503;-61
2023/06/02 10:03:30;;;;;;;16.02;2.80;;;;;;;;;;5028774;28;20075;-60
2023/06/02 10:06:05;;;;;;;9.27;2.47;;;;;;;;;;5030641;28;20065;-61
2023/06/02 10:08:35;;;;;;;10.85;2.50;;;;;;;;;;5030371;28;20108;-60
2023/06/02 10:11:00;;;;;;;12.50;2.42;;;;;;;;;;5028664;28;20035;-59
2023/06/02 10:13:46;;;;;;;11.90;2.15;;;;;;;;;;5025283;28;20100;-60
2023/06/02 10:16:27;;;;;;;9.15;2.28;;;;;;;;;;5030200;28;20223;-59
2023/06/02 10:19:05;;;;;;;11.90;2.65;;;;;;;;;;5029555;28;20068;-59
2023/06/02 10:21:48;;;;;;;9.70;2.58;;;;;;;;;;5030856;28;20048;-59
2023/06/02 10:24:32;;;;;;;12.52;2.55;;;;;;;;;;5033969;28;20025;-61
2023/06/02 10:27:05;;;;;;;11.05;2.45;;;;;;;;;;5032124;28;20096;-59
2023/06/02 10:29:31;;;;;;;13.63;2.38;;;;;;;;;;5025033;28;20111;-59
2023/06/02 10:31:56;;;;;;;11.68;2.15;;;;;;;;;;5029595;28;20049;-59
2023/06/02 10:34:37;;;;;;;12.68;2.30;;;;;;;;;;5033982;28;20025;-59
2023/06/02 10:37:02;;;;;;;10.60;2.45;;;;;;;;;;5026672;28;20026;-60
2023/06/02 10:39:40;;;;;;;13.82;2.28;;;;;;;;;;5029485;28;20040;-59
2023/06/02 10:42:05;;;;;;;10.07;2.33;;;;;;;;;;5021917;28;20500;-60
2023/06/02 10:44:31;;;;;;;7.53;1.88;;;;;;;;;;5034563;28;20061;-60
2023/06/02 10:47:15;;;;;;;9.85;2.30;;;;;;;;;;5034405;28;20022;-59
2023/06/02 10:50:01;;;;;;;10.80;2.00;;;;;;;;;;5027050;28;20105;-60
2023/06/02 10:52:27;;;;;;;7.82;2.22;;;;;;;;;;5031421;28;20024;-59
2023/06/02 10:55:07;;;;;;;10.88;2.17;;;;;;;;;;5032541;28;20100;-60
2023/06/02 10:57:51;;;;;;;12.32;2.28;;;;;;;;;;5032264;28;20029;-59
2023/06/02 11:00:40;;;;;;;11.45;2.50;;;;;;;;;;5030205;28;20036;-60
2023/06/02 11:03:08;;;;;;;9.10;2.10;;;;;;;;;;5031684;28;20025;-60
2023/06/02 11:05:33;;;;;;;10.98;2.30;;;;;;;;;;5024639;28;20047;-60
2023/06/02 11:08:11;;;;;;;8.63;2.00;;;;;;;;;;5015062;28;20375;-59
2023/06/02 11:10:39;;;;;;;8.30;1.90;;;;;;;;;;5013205;28;20025;-59
2023/06/02 11:13:06;;;;;;;11.85;2.40;;;;;;;;;;5021989;28;20097;-59
2023/06/02 11:15:31;;;;;;;;;;;;;;;;;;5031167;28;20045;-61
2023/06/02 11:17:56;;;;;;;12.32;2.20;;;;;;;;;;5033078;28;19937;-61
2023/06/02 11:20:31;;;;;;;11.83;2.60;;;;;;;;;;5032799;28;20021;-60
2023/06/02 11:23:02;;;;;;;8.80;1.95;;;;;;;;;;5032868;28;20025;-59
2023/06/02 11:25:27;;;;;;;11.80;2.38;;;;;;;;;;5031580;28;20048;-61
2023/06/02 11:27:52;;;;;;;12.57;2.55;;;;;;;;;;5027098;28;20013;-59
2023/06/02 11:30:18;;;;;;;10.07;2.22;;;;;;;;;;5030850;28;20029;-60
2023/06/02 11:32:46;;;;;;;10.10;2.15;;;;;;;;;;5032175;28;20424;-59
2023/06/02 11:35:11;;;;;;;11.35;2.08;;;;;;;;;;5032600;28;20028;-59
2023/06/02 11:37:38;;;;;;;9.97;1.90;;;;;;;;;;5033416;28;20026;-59
2023/06/02 11:40:05;;;;;;;11.98;2.35;;;;;;;;;;5032670;28;20032;-59
2023/06/02 11:42:35;;;;;;;18.52;2.45;;;;;;;;;;5030953;28;20516;-59
2023/06/02 11:45:00;;;;;;;16.95;2.20;;;;;;;;;;5027090;28;20417;-59
2023/06/02 11:47:25;;;;;;;11.70;2.10;;;;;;;;;;5032660;28;20032;-59
2023/06/02 11:49:50;;;;;;;11.63;2.10;;;;;;;;;;5032135;28;20022;-60
2023/06/02 11:52:16;;;;;;;12.27;2.30;;;;;;;;;;5032620;28;20029;-59
2023/06/02 11:54:50;;;;;;;11.53;2.33;;;;;;;;;;5032599;28;20029;-59
2023/06/02 11:57:32;;;;;;;14.20;2.30;;;;;;;;;;5028612;28;20088;-59
2023/06/02 12:00:09;;;;;;;11.45;2.55;;;;;;;;;;5017211;28;20437;-59
2023/06/02 12:02:35;;;;;;;8.70;2.40;;;;;;;;;;5017889;28;20021;-60
2023/06/02 12:05:00;;;;;;;12.43;2.10;;;;;;;;;;5032599;28;20555;-60
2023/06/02 12:07:29;;;;;;;9.03;2.00;;;;;;;;;;5032837;28;20028;-60
2023/06/02 12:09:54;;;;;;;10.93;2.25;;;;;;;;;;5032188;28;20488;-60
2023/06/02 12:12:19;;;;;;;7.20;1.60;;;;;;;;;;5032151;28;20101;-60
2023/06/02 12:14:44;;;;;;;9.07;2.20;;;;;;;;;;5024503;28;20488;-60
2023/06/02 12:17:09;;;;;;;9.88;2.30;;;;;;;;;;5030032;28;20551;-60
2023/06/02 12:19:35;;;;;;;10.60;2.40;;;;;;;;;;5029546;28;20556;-60
2023/06/02 12:22:08;;;;;;;11.68;2.42;;;;;;;;;;5021167;28;20025;-60
2023/06/02 12:24:34;;;;;;;11.35;2.80;;;;;;;;;;5038365;28;20025;-60
2023/06/02 12:27:00;;;;;;;12.15;2.80;;;;;;;;;;5031847;28;20025;-61
2023/06/02 12:29:25;;;;;;;11.68;2.60;;;;;;;;;;5030774;28;20017;-60
2023/06/02 12:31:56;;;;;;;13.53;1.97;;;;;;;;;;5028638;28;20028;-60
2023/06/02 12:34:22;;;;;;;11.45;2.55;;;;;;;;;;5041296;28;20090;-60
2023/06/02 12:36:47;;;;;;;11.85;2.80;;;;;;;;;;5031743;28;20522;-60
2023/06/02 12:39:12;;;;;;;12.18;2.47;;;;;;;;;;5023520;28;20030;-60
2023/06/02 12:41:37;;;;;;;11.55;2.33;;;;;;;;;;5019552;28;20026;-60
2023/06/02 12:44:02;;;;;;;12.87;2.30;;;;;;;;;;5028838;28;20441;-60
2023/06/02 12:46:27;;;;;;;10.23;2.07;;;;;;;;;;5021071;28;20127;-60
2023/06/02 12:48:53;;;;;;;13.63;2.37;;;;;;;;;;5018872;28;20025;-59
2023/06/02 12:51:18;;;;;;;13.07;2.93;;;;;;;;;;5029601;28;20531;-60
2023/06/02 12:53:43;;;;;;;12.83;2.27;;;;;;;;;;5026794;28;20124;-60
2023/06/02 12:56:08;;;;;;;10.43;2.40;;;;;;;;;;5029265;28;20470;-60
2023/06/02 12:58:33;;;;;;;13.55;2.45;;;;;;;;;;5024454;28;20032;-60
2023/06/02 13:00:58;;;;;;;9.90;2.57;;;;;;;;;;5031288;28;20028;-60
2023/06/02 13:03:24;;;;;;;10.13;2.43;;;;;;;;;;5032722;28;20092;-60
2023/06/02 13:05:56;;;;;;;10.02;2.30;;;;;;;;;;5030690;28;20433;-60
2023/06/02 13:08:21;;;;;;;10.10;2.30;;;;;;;;;;5018958;28;20021;-60
2023/06/02 13:10:47;;;;;;;12.45;2.90;;;;;;;;;;5029376;28;20410;-60
2023/06/02 13:13:12;;;;;;;14.40;3.10;;;;;;;;;;5037351;28;20029;-60
2023/06/02 13:15:38;;;;;;;9.32;2.42;;;;;;;;;;5022478;28;20037;-60
2023/06/02 13:18:03;;;;;;;11.10;2.45;;;;;;;;;;5033962;28;20028;-60
2023/06/02 13:20:29;;;;;;;12.02;2.70;;;;;;;;;;5030317;28;20056;-60
2023/06/02 13:22:54;;;;;;;10.30;2.55;;;;;;;;;;5026929;28;20095;-60
2023/06/02 13:25:19;;;;;;;11.70;2.53;;;;;;;;;;5031124;28;20393;-60
2023/06/02 13:27:44;;;;;;;10.60;2.43;;;;;;;;;;5031455;28;20029;-60
2023/06/02 13:30:10;;;;;;;12.77;2.90;;;;;;;;;;5022894;28;20386;-60
2023/06/02 13:32:35;;;;;;;12.52;2.60;;;;;;;;;;5031134;28;20432;-60
2023/06/02 13:35:00;;;;;;;10.25;2.60;;;;;;;;;;5030016;28;20160;-60
2023/06/02 13:37:25;;;;;;;10.07;2.83;;;;;;;;;;5024379;28;20018;-60
2023/06/02 13:39:51;;;;;;;9.03;2.60;;;;;;;;;;5025867;28;20032;-60
2023/06/02 13:42:16;;;;;;;8.55;2.83;;;;;;;;;;5030543;28;20029;-60
2023/06/02 13:44:41;;;;;;;10.90;2.53;;;;;;;;;;5030940;28;20026;-60
2023/06/02 13:47:07;;;;;;;7.93;2.38;;;;;;;;;;5031038;28;20021;-59
2023/06/02 13:49:32;;;;;;;10.03;3.20;;;;;;;;;;5030301;28;20099;-60
2023/06/02 13:51:57;;;;;;;10.47;3.10;;;;;;;;;;5028953;28;21148;-60
2023/06/02 13:54:22;;;;;;;10.45;2.85;;;;;;;;;;5015575;28;20037;-60
2023/06/02 13:56:48;;;;;;;11.70;3.05;;;;;;;;;;5015488;28;20051;-60
2023/06/02 13:59:13;;;;;;;9.68;3.10;;;;;;;;;;5021234;28;20034;-60
2023/06/02 14:01:38;;;;;;;9.60;2.87;;;;;;;;;;5011457;28;20014;-60
2023/06/02 14:04:08;;;;;;;10.73;2.67;;;;;;;;;;5010487;28;20026;-60
2023/06/02 14:06:36;;;;;;;8.00;2.60;;;;;;;;;;5010832;28;20121;-60
2023/06/02 14:09:02;;;;;;;12.38;2.90;;;;;;;;;;5014761;28;20032;-60
2023/06/02 14:11:27;;;;;;;11.38;2.72;;;;;;;;;;5031150;28;20021;-60
2023/06/02 14:13:53;;;;;;;11.48;3.30;;;;;;;;;;5029999;28;20022;-60
2023/06/02 14:16:18;;;;;;;9.48;2.53;;;;;;;;;;5027515;28;20021;-61
2023/06/02 14:18:43;;;;;;;10.60;3.10;;;;;;;;;;5029390;28;20366;-60
2023/06/02 14:21:08;;;;;;;10.80;3.15;;;;;;;;;;5027895;28;20402;-60
2023/06/02 14:23:33;;;;;;;10.07;2.60;;;;;;;;;;5027476;28;20080;-60
2023/06/02 14:25:59;;;;;;;11.43;2.90;;;;;;;;;;5014557;28;20445;-61
2023/06/02 14:28:24;;;;;;;10.20;3.23;;;;;;;;;;5021202;28;20013;-61
2023/06/02 14:30:49;;;;;;;8.48;3.00;;;;;;;;;;5022164;28;20021;-60